createdAt,value
2017-10-08T00:02:20.742Z,13.00
2017-10-08T00:04:49.745Z,13.00
2017-10-08T00:07:18.030Z,13.10
2017-10-08T00:09:46.354Z,13.20
2017-10-08T00:12:14.644Z,13.20
2017-10-08T00:14:44.063Z,13.20
2017-10-08T00:17:12.398Z,13.10
2017-10-08T00:19:40.682Z,13.10
2017-10-08T00:22:08.971Z,13.20
2017-10-08T00:24:37.315Z,13.20
2017-10-08T00:27:05.594Z,13.30
2017-10-08T00:29:35.010Z,13.30
2017-10-08T00:32:03.333Z,13.30
2017-10-08T00:34:31.606Z,13.30
2017-10-08T00:36:59.891Z,13.30
2017-10-08T00:39:28.220Z,13.30
2017-10-08T00:41:57.271Z,13.30
2017-10-08T00:44:25.558Z,13.30
2017-10-08T00:46:53.902Z,13.40
2017-10-08T00:51:51.705Z,13.40
2017-10-08T00:56:49.930Z,13.40
2017-10-08T00:59:18.213Z,13.40
2017-10-08T01:01:46.562Z,13.40
2017-10-08T01:04:14.845Z,13.40
2017-10-08T01:06:43.131Z,13.40
2017-10-08T01:11:43.004Z,13.50
2017-10-08T01:14:11.286Z,13.50
2017-10-08T01:16:39.629Z,13.50
2017-10-08T01:19:07.916Z,13.60
2017-10-08T01:21:36.201Z,13.60
2017-10-08T01:24:05.326Z,13.60
2017-10-08T01:26:34.377Z,13.60
2017-10-08T01:29:03.422Z,13.60
2017-10-08T01:31:31.763Z,13.60
2017-10-08T01:34:00.046Z,13.60
2017-10-08T01:36:29.835Z,13.50
2017-10-08T01:38:58.178Z,13.60
2017-10-08T01:41:27.994Z,13.50
2017-10-08T01:43:56.274Z,13.50
2017-10-08T01:46:25.012Z,13.40
2017-10-08T01:48:53.300Z,13.50
2017-10-08T01:51:22.351Z,13.50
2017-10-08T01:53:51.122Z,13.60
2017-10-08T01:56:19.405Z,13.60
2017-10-08T01:58:47.681Z,13.50
2017-10-08T02:01:16.016Z,13.50
2017-10-08T02:03:45.057Z,13.50
2017-10-08T02:06:14.105Z,13.60
2017-10-08T02:08:43.225Z,13.60
2017-10-08T02:11:12.282Z,13.60
2017-10-08T02:13:41.344Z,13.60
2017-10-08T02:16:09.675Z,13.60
2017-10-08T02:18:39.468Z,13.60
2017-10-08T02:21:07.756Z,13.60
2017-10-08T02:23:36.129Z,13.50
2017-10-08T02:26:04.418Z,13.50
2017-10-08T02:28:34.206Z,13.60
2017-10-08T02:31:02.540Z,13.60
2017-10-08T02:33:30.829Z,13.60
2017-10-08T02:35:59.101Z,13.60
2017-10-08T02:38:27.450Z,13.60
2017-10-08T02:40:57.238Z,13.70
2017-10-08T02:43:25.522Z,13.70
2017-10-08T02:45:54.127Z,13.70
2017-10-08T02:48:22.821Z,13.70
2017-10-08T02:50:51.098Z,13.80
2017-10-08T02:53:19.474Z,13.80
2017-10-08T02:55:47.747Z,13.80
2017-10-08T02:58:16.034Z,13.80
2017-10-08T03:00:45.506Z,13.80
2017-10-08T03:03:13.794Z,13.80
2017-10-08T03:05:42.082Z,13.90
2017-10-08T03:08:10.435Z,13.90
2017-10-08T03:10:38.711Z,13.90
2017-10-08T03:13:06.994Z,13.90
2017-10-08T03:15:35.330Z,13.90
2017-10-08T03:18:04.757Z,14.00
2017-10-08T03:20:33.035Z,13.90
2017-10-08T03:23:01.415Z,14.00
2017-10-08T03:25:30.470Z,14.00
2017-10-08T03:27:58.753Z,14.00
2017-10-08T03:30:27.107Z,13.90
2017-10-08T03:32:56.904Z,14.00
2017-10-08T03:35:25.187Z,14.00
2017-10-08T03:37:53.522Z,14.00
2017-10-08T03:40:21.806Z,14.00
2017-10-08T03:42:50.087Z,14.00
2017-10-08T03:45:19.549Z,14.10
2017-10-08T03:47:47.831Z,14.10
2017-10-08T03:50:16.116Z,14.00
2017-10-08T03:52:45.949Z,14.10
2017-10-08T03:55:14.999Z,14.00
2017-10-08T03:57:44.046Z,14.00
2017-10-08T04:02:43.046Z,14.00
2017-10-08T04:05:12.466Z,13.90
2017-10-08T04:07:41.219Z,14.00
2017-10-08T04:10:09.502Z,14.00
2017-10-08T04:12:38.564Z,13.90
2017-10-08T04:17:37.438Z,13.90
2017-10-08T04:20:06.867Z,13.90
2017-10-08T04:22:35.242Z,13.90
2017-10-08T04:25:03.525Z,13.80
2017-10-08T04:30:02.154Z,13.70
2017-10-08T04:32:31.571Z,13.70
2017-10-08T04:34:59.854Z,13.80
2017-10-08T04:37:28.442Z,13.80
2017-10-08T04:39:56.738Z,13.70
2017-10-08T04:42:25.014Z,13.70
2017-10-08T04:44:54.137Z,13.70
2017-10-08T04:47:23.181Z,13.80
2017-10-08T04:49:51.469Z,13.80
2017-10-08T04:52:20.576Z,13.80
2017-10-08T04:54:48.867Z,13.70
2017-10-08T04:57:18.662Z,13.80
2017-10-08T04:59:47.045Z,13.80
2017-10-08T05:02:15.323Z,13.80
2017-10-08T05:04:43.602Z,13.80
2017-10-08T05:07:13.050Z,13.70
2017-10-08T05:09:41.730Z,13.60
2017-10-08T05:12:10.008Z,13.70
2017-10-08T05:14:38.354Z,13.70
2017-10-08T05:17:07.780Z,13.70
2017-10-08T05:19:36.056Z,13.70
2017-10-08T05:22:04.426Z,13.70
2017-10-08T05:24:32.711Z,13.70
2017-10-08T05:27:01.002Z,13.70
2017-10-08T05:32:00.362Z,13.70
2017-10-08T05:34:28.642Z,13.70
2017-10-08T05:36:58.771Z,13.70
2017-10-08T05:39:27.055Z,13.70
2017-10-08T05:41:55.340Z,13.70
2017-10-08T05:46:53.214Z,13.70
2017-10-08T05:49:21.493Z,13.60
2017-10-08T05:51:49.890Z,13.60
2017-10-08T05:54:18.173Z,13.50
2017-10-08T05:56:46.459Z,13.50
2017-10-08T05:59:15.951Z,13.50
2017-10-08T06:01:45.744Z,13.50
2017-10-08T06:04:14.790Z,13.50
2017-10-08T06:11:42.877Z,13.60
2017-10-08T06:14:11.222Z,13.60
2017-10-08T06:16:40.266Z,13.60
2017-10-08T06:19:08.554Z,13.60
2017-10-08T06:21:38.398Z,13.60
2017-10-08T06:26:36.591Z,13.60
2017-10-08T06:29:04.922Z,13.70
2017-10-08T06:31:33.210Z,13.70
2017-10-08T06:34:01.510Z,13.70
2017-10-08T06:36:30.110Z,13.70
2017-10-08T06:38:58.390Z,13.80
2017-10-08T06:41:27.818Z,13.70
2017-10-08T06:43:56.168Z,13.80
2017-10-08T06:48:54.346Z,13.80
2017-10-08T06:51:22.700Z,13.80
2017-10-08T06:53:50.983Z,13.90
2017-10-08T06:56:19.263Z,13.80
2017-10-08T06:58:48.400Z,13.90
2017-10-08T07:01:16.680Z,13.80
2017-10-08T07:03:44.953Z,13.90
2017-10-08T07:08:42.801Z,13.90
2017-10-08T07:11:11.085Z,14.00
2017-10-08T07:13:39.836Z,14.00
2017-10-08T07:16:09.634Z,14.00
2017-10-08T07:18:37.924Z,14.00
2017-10-08T07:21:07.718Z,14.00
2017-10-08T07:23:36.007Z,14.10
2017-10-08T07:26:04.294Z,14.10
2017-10-08T07:28:32.634Z,14.20
2017-10-08T07:31:02.428Z,14.20
2017-10-08T07:33:30.715Z,14.30
2017-10-08T07:35:59.813Z,14.40
2017-10-08T07:38:28.105Z,14.50
2017-10-08T07:40:56.383Z,14.50
2017-10-08T07:45:54.217Z,14.60
2017-10-08T07:48:22.507Z,14.70
2017-10-08T07:50:50.842Z,14.70
2017-10-08T07:53:19.158Z,14.80
2017-10-08T07:55:47.447Z,14.80
2017-10-08T07:58:15.779Z,14.80
2017-10-08T08:00:45.197Z,14.90
2017-10-08T08:03:13.487Z,14.90
2017-10-08T08:05:42.267Z,14.90
2017-10-08T08:08:11.684Z,14.90
2017-10-08T08:10:39.973Z,14.90
2017-10-08T08:13:08.311Z,14.90
2017-10-08T08:15:36.591Z,14.90
2017-10-08T08:18:04.880Z,15.00
2017-10-08T08:23:03.883Z,14.90
2017-10-08T08:25:32.174Z,14.90
2017-10-08T08:28:00.503Z,14.80
2017-10-08T08:30:28.798Z,14.80
2017-10-08T08:32:57.083Z,14.70
2017-10-08T08:35:26.549Z,14.70
2017-10-08T08:37:54.829Z,14.70
2017-10-08T08:40:23.119Z,14.80
2017-10-08T08:42:51.465Z,14.70
2017-10-08T08:45:21.253Z,14.70
2017-10-08T08:47:49.535Z,14.80
2017-10-08T08:50:17.863Z,14.70
2017-10-08T08:52:46.148Z,14.70
2017-10-08T08:55:14.420Z,14.70
2017-10-08T08:57:43.526Z,14.60
2017-10-08T09:00:12.578Z,14.60
2017-10-08T09:02:41.630Z,14.60
2017-10-08T09:05:09.947Z,14.60
2017-10-08T09:07:38.227Z,14.60
2017-10-08T09:10:06.502Z,14.60
2017-10-08T09:12:34.813Z,14.60
2017-10-08T09:15:03.085Z,14.70
2017-10-08T09:17:32.509Z,14.70
2017-10-08T09:20:01.593Z,14.80
2017-10-08T09:22:30.649Z,15.00
2017-10-08T09:24:58.930Z,15.30
2017-10-08T09:27:27.256Z,15.60
2017-10-08T09:32:25.800Z,16.30
2017-10-08T09:34:54.135Z,16.60
2017-10-08T09:37:22.422Z,17.00
2017-10-08T09:39:51.458Z,17.00
2017-10-08T09:42:20.546Z,17.20
2017-10-08T09:44:49.599Z,17.20
2017-10-08T09:49:48.582Z,16.90
2017-10-08T09:52:17.993Z,16.80
2017-10-08T09:54:46.277Z,16.80
2017-10-08T09:57:14.606Z,16.80
2017-10-08T09:59:44.387Z,16.80
2017-10-08T10:02:12.907Z,16.80
2017-10-08T10:04:41.618Z,16.90
2017-10-08T10:07:10.666Z,16.90
2017-10-08T10:09:39.707Z,16.80
2017-10-08T10:12:08.050Z,16.80
2017-10-08T10:14:37.098Z,16.90
2017-10-08T10:17:05.766Z,16.80
2017-10-08T10:19:34.130Z,16.80
2017-10-08T10:22:03.172Z,16.80
2017-10-08T10:24:31.491Z,16.80
2017-10-08T10:26:59.806Z,16.80
2017-10-08T10:29:28.087Z,16.80
2017-10-08T10:31:57.127Z,16.90
2017-10-08T10:34:26.590Z,16.90
2017-10-08T10:36:54.870Z,17.00
2017-10-08T10:39:23.924Z,17.00
2017-10-08T10:41:52.229Z,17.10
2017-10-08T10:44:20.506Z,17.20
2017-10-08T10:46:49.545Z,17.10
2017-10-08T10:49:19.406Z,17.20
2017-10-08T10:54:17.189Z,17.30
2017-10-08T10:56:45.546Z,17.40
2017-10-08T11:01:45.111Z,17.30
2017-10-08T11:04:14.154Z,17.30
2017-10-08T11:06:43.194Z,17.20
2017-10-08T11:11:41.749Z,16.80
2017-10-08T11:14:10.029Z,16.80
2017-10-08T11:16:39.874Z,16.80
2017-10-08T11:19:09.651Z,16.50
2017-10-08T11:21:37.930Z,16.30
2017-10-08T11:24:06.575Z,16.10
2017-10-08T11:26:34.845Z,16.00
2017-10-08T11:29:03.125Z,15.80
2017-10-08T11:31:32.958Z,15.70
2017-10-08T11:36:31.130Z,15.50
2017-10-08T11:38:59.454Z,15.50
2017-10-08T11:41:27.735Z,15.50
2017-10-08T11:43:56.011Z,15.50
2017-10-08T11:46:25.397Z,15.30
2017-10-08T11:48:54.438Z,15.40
2017-10-08T11:51:23.481Z,15.40
2017-10-08T11:53:53.369Z,15.40
2017-10-08T11:56:21.642Z,15.40
2017-10-08T11:58:49.958Z,15.50
2017-10-08T12:01:20.226Z,15.40
2017-10-08T12:03:48.503Z,15.50
2017-10-08T12:06:17.166Z,15.40
2017-10-08T12:08:46.235Z,15.40
2017-10-08T12:11:14.516Z,15.50
2017-10-08T12:13:43.559Z,15.60
2017-10-08T12:16:13.023Z,15.60
2017-10-08T12:18:41.694Z,15.60
2017-10-08T12:21:10.739Z,15.60
2017-10-08T12:26:09.704Z,15.50
2017-10-08T12:28:37.979Z,15.50
2017-10-08T12:31:06.310Z,15.50
2017-10-08T12:33:35.346Z,15.50
2017-10-08T12:36:03.614Z,15.40
2017-10-08T12:38:31.954Z,15.40
2017-10-08T12:41:00.230Z,15.40
2017-10-08T12:43:28.506Z,15.40
2017-10-08T12:45:56.855Z,15.40
2017-10-08T12:48:25.906Z,15.50
2017-10-08T12:50:54.178Z,15.50
2017-10-08T12:53:23.220Z,15.50
2017-10-08T12:55:52.666Z,15.50
2017-10-08T12:58:20.938Z,15.60
2017-10-08T13:05:49.546Z,15.60
2017-10-08T13:08:17.871Z,15.60
2017-10-08T13:10:46.915Z,15.70
2017-10-08T13:13:16.327Z,15.70
2017-10-08T13:15:45.050Z,15.80
2017-10-08T13:18:13.324Z,15.70
2017-10-08T13:20:41.601Z,15.70
2017-10-08T13:23:09.935Z,15.70
2017-10-08T13:25:38.212Z,15.80
2017-10-08T13:28:06.487Z,15.80
2017-10-08T13:30:35.217Z,15.80
2017-10-08T13:33:03.899Z,15.70
2017-10-08T13:35:32.183Z,15.80
2017-10-08T13:38:00.867Z,15.80
2017-10-08T13:40:29.181Z,15.80
2017-10-08T13:42:57.519Z,15.80
2017-10-08T13:45:27.459Z,15.90
2017-10-08T13:47:56.498Z,16.00
2017-10-08T13:50:24.783Z,16.00
2017-10-08T13:52:53.923Z,15.90
2017-10-08T13:55:22.966Z,15.90
2017-10-08T13:57:51.240Z,15.90
2017-10-08T14:00:20.343Z,15.90
2017-10-08T14:05:19.200Z,15.80
2017-10-08T14:07:47.572Z,15.80
2017-10-08T14:10:15.841Z,15.80
2017-10-08T14:12:44.882Z,15.80
2017-10-08T14:17:42.706Z,15.70
2017-10-08T14:20:10.997Z,15.70
2017-10-08T14:22:40.854Z,15.60
2017-10-08T14:25:09.131Z,15.60
2017-10-08T14:30:08.977Z,15.50
2017-10-08T14:32:37.650Z,15.60
2017-10-08T14:35:05.934Z,15.60
2017-10-08T14:37:34.649Z,15.60
2017-10-08T14:40:04.074Z,15.60
2017-10-08T14:42:33.136Z,15.60
2017-10-08T14:45:01.495Z,15.60
2017-10-08T14:47:29.745Z,15.50
2017-10-08T14:49:58.028Z,15.50
2017-10-08T14:52:26.354Z,15.50
2017-10-08T14:54:54.638Z,15.60
2017-10-08T14:57:22.919Z,15.60
2017-10-08T15:02:22.248Z,15.60
2017-10-08T15:04:50.526Z,15.70
2017-10-08T15:07:18.865Z,15.70
2017-10-08T15:09:47.141Z,15.70
2017-10-08T15:12:15.432Z,15.70
2017-10-08T15:17:18.541Z,15.80
2017-10-08T15:22:17.526Z,15.80
2017-10-08T15:24:46.944Z,15.80
2017-10-08T15:27:16.322Z,15.70
2017-10-08T15:29:44.990Z,15.80
2017-10-08T15:32:13.274Z,15.80
2017-10-08T15:34:41.946Z,15.70
2017-10-08T15:37:10.222Z,15.70
2017-10-08T15:39:38.509Z,15.60
2017-10-08T15:42:06.849Z,15.60
2017-10-08T15:44:35.896Z,15.60
2017-10-08T15:47:04.569Z,15.60
2017-10-08T15:49:33.210Z,15.60
2017-10-08T15:54:32.128Z,15.60
2017-10-08T15:57:00.486Z,15.60
2017-10-08T15:59:28.763Z,15.60
2017-10-08T16:01:57.067Z,15.60
2017-10-08T16:04:25.396Z,15.50
2017-10-08T16:06:53.686Z,15.50
2017-10-08T16:09:22.740Z,15.50
2017-10-08T16:11:51.491Z,15.40
2017-10-08T16:14:19.770Z,15.40
2017-10-08T16:16:48.037Z,15.40
2017-10-08T16:19:16.374Z,15.30
2017-10-08T16:21:45.798Z,15.20
2017-10-08T16:24:14.071Z,15.20
2017-10-08T16:26:42.402Z,15.10
2017-10-08T16:31:40.578Z,15.00
2017-10-08T16:34:09.227Z,15.00
2017-10-08T16:36:39.006Z,14.90
2017-10-08T16:39:08.055Z,14.90
2017-10-08T16:41:36.391Z,14.80
2017-10-08T16:44:04.663Z,14.70
2017-10-08T16:46:32.934Z,14.80
2017-10-08T16:49:13.127Z,14.80
2017-10-08T16:51:42.906Z,14.70
2017-10-08T16:54:11.212Z,14.70
2017-10-08T16:56:39.539Z,14.50
2017-10-08T16:59:07.810Z,14.50
2017-10-08T17:01:36.092Z,14.40
2017-10-08T17:04:04.438Z,14.40
2017-10-08T17:06:32.712Z,14.30
2017-10-08T17:09:00.990Z,14.30
2017-10-08T17:11:30.786Z,14.30
2017-10-08T17:13:59.064Z,14.20
2017-10-08T17:16:27.734Z,14.10
2017-10-08T17:18:56.053Z,14.10
2017-10-08T17:21:25.466Z,14.10
2017-10-08T17:23:54.138Z,14.10
2017-10-08T17:26:22.474Z,14.10
2017-10-08T17:28:50.751Z,14.00
2017-10-08T17:31:19.024Z,14.00
2017-10-08T17:33:47.426Z,14.00
2017-10-08T17:36:15.697Z,14.00
2017-10-08T17:38:43.983Z,14.00
2017-10-08T17:41:12.346Z,13.90
2017-10-08T17:43:41.374Z,13.80
2017-10-08T17:46:09.650Z,13.80
2017-10-08T17:48:38.747Z,13.70
2017-10-08T17:51:07.027Z,13.70
2017-10-08T17:53:36.434Z,13.60
2017-10-08T17:56:04.763Z,13.60
2017-10-08T17:58:33.035Z,13.60
2017-10-08T18:01:01.707Z,13.40
2017-10-08T18:03:30.036Z,13.30
2017-10-08T18:05:58.302Z,13.20
2017-10-08T18:08:26.577Z,13.00
2017-10-08T18:10:54.929Z,13.10
2017-10-08T18:13:23.203Z,13.10
2017-10-08T18:15:51.486Z,13.10
2017-10-08T18:18:19.810Z,13.10
2017-10-08T18:20:48.090Z,13.00
2017-10-08T18:23:17.139Z,13.10
2017-10-08T18:25:45.445Z,13.10
2017-10-08T18:28:13.735Z,13.00
2017-10-08T18:30:42.002Z,13.10
2017-10-08T18:33:10.654Z,13.10
2017-10-08T18:35:38.945Z,13.20
2017-10-08T18:38:07.614Z,13.20
2017-10-08T18:40:36.761Z,13.20
2017-10-08T18:43:05.806Z,13.10
2017-10-08T18:45:34.087Z,13.10
2017-10-08T18:48:02.410Z,13.10
2017-10-08T18:53:00.215Z,13.10
2017-10-08T18:55:28.547Z,13.00
2017-10-08T18:57:56.826Z,12.90
2017-10-08T19:00:25.105Z,12.90
2017-10-08T19:02:55.301Z,12.90
2017-10-08T19:05:23.585Z,12.70
2017-10-08T19:07:51.875Z,12.70
2017-10-08T19:10:20.238Z,12.60
2017-10-08T19:12:48.510Z,12.60
2017-10-08T19:15:17.924Z,12.50
2017-10-08T19:17:46.246Z,12.40
2017-10-08T19:20:14.530Z,12.30
2017-10-08T19:22:42.802Z,12.30
2017-10-08T19:27:41.763Z,12.20
2017-10-08T19:30:10.046Z,12.20
2017-10-08T19:35:08.287Z,12.00
2017-10-08T19:37:36.959Z,12.00
2017-10-08T19:40:05.350Z,12.00
2017-10-08T19:42:34.399Z,12.00
2017-10-08T19:45:02.670Z,12.00
2017-10-08T19:47:31.271Z,12.00
2017-10-08T19:49:59.549Z,12.00
2017-10-08T19:52:29.337Z,12.00
2017-10-08T19:54:57.657Z,12.10
2017-10-08T19:57:25.937Z,12.20
2017-10-08T19:59:54.222Z,12.30
2017-10-08T20:02:22.560Z,12.30
2017-10-08T20:04:50.831Z,12.30
2017-10-08T20:07:19.508Z,12.30
2017-10-08T20:09:48.608Z,12.30
2017-10-08T20:12:18.028Z,12.30
2017-10-08T20:14:46.396Z,12.30
2017-10-08T20:17:15.035Z,12.30
2017-10-08T20:19:44.078Z,12.40
2017-10-08T20:22:12.347Z,12.40
2017-10-08T20:24:41.050Z,12.40
2017-10-08T20:27:09.337Z,12.30
2017-10-08T20:29:37.618Z,12.20
2017-10-08T20:32:05.954Z,12.20
2017-10-08T20:34:34.231Z,12.20
2017-10-08T20:37:02.516Z,12.20
2017-10-08T20:39:31.628Z,12.20
2017-10-08T20:42:01.042Z,12.10
2017-10-08T20:44:29.326Z,12.10
2017-10-08T20:46:58.410Z,12.00
2017-10-08T20:49:26.690Z,11.90
2017-10-08T20:51:55.734Z,11.90
2017-10-08T20:54:24.110Z,11.90
2017-10-08T20:56:53.155Z,11.80
2017-10-08T20:59:21.839Z,11.90
2017-10-08T21:01:50.958Z,11.90
2017-10-08T21:04:20.031Z,11.80
2017-10-08T21:06:48.314Z,11.80
2017-10-08T21:09:16.655Z,11.90
2017-10-08T21:11:44.922Z,12.00
2017-10-08T21:14:13.198Z,12.00
2017-10-08T21:16:41.855Z,12.00
2017-10-08T21:21:39.638Z,12.10
2017-10-08T21:24:08.762Z,12.10
2017-10-08T21:29:06.543Z,12.20
2017-10-08T21:31:35.678Z,12.30
2017-10-08T21:34:05.466Z,12.30
2017-10-08T21:36:33.742Z,12.30
2017-10-08T21:39:03.250Z,12.30
2017-10-08T21:41:31.943Z,12.30
2017-10-08T21:44:00.213Z,12.40
2017-10-08T21:46:28.550Z,12.40
2017-10-08T21:48:56.817Z,12.30
2017-10-08T21:51:25.098Z,12.30
2017-10-08T21:53:54.702Z,12.20
2017-10-08T21:56:22.974Z,12.30
2017-10-08T21:58:51.307Z,12.30
2017-10-08T22:01:19.622Z,12.40
2017-10-08T22:03:47.907Z,12.40
2017-10-08T22:06:16.177Z,12.40
2017-10-08T22:08:45.294Z,12.40
2017-10-08T22:11:13.586Z,12.40
2017-10-08T22:13:42.638Z,12.50
2017-10-08T22:16:11.250Z,12.50
2017-10-08T22:18:39.539Z,12.50
2017-10-08T22:21:07.814Z,12.50
2017-10-08T22:23:36.142Z,12.60
2017-10-08T22:28:33.926Z,12.50
2017-10-08T22:31:03.052Z,12.50
2017-10-08T22:33:32.470Z,12.30
2017-10-08T22:36:01.515Z,12.30
2017-10-08T22:38:29.852Z,12.30
2017-10-08T22:40:58.885Z,12.40
2017-10-08T22:43:27.158Z,12.50
2017-10-08T22:45:55.495Z,12.50
2017-10-08T22:48:23.771Z,12.50
2017-10-08T22:50:52.046Z,12.60
2017-10-08T22:53:21.658Z,12.60
2017-10-08T22:55:51.082Z,12.50
2017-10-08T23:00:48.928Z,12.50
2017-10-08T23:03:17.598Z,12.40
2017-10-08T23:05:45.870Z,12.40
2017-10-08T23:08:14.190Z,12.30
2017-10-08T23:10:42.470Z,12.30
2017-10-08T23:13:11.890Z,12.30
2017-10-08T23:15:40.232Z,12.20
2017-10-08T23:18:08.507Z,12.20
2017-10-08T23:20:36.783Z,12.10
2017-10-08T23:23:05.106Z,12.10
2017-10-08T23:25:33.378Z,12.10
2017-10-08T23:28:02.431Z,12.00
2017-10-08T23:30:30.747Z,11.90
2017-10-08T23:32:59.027Z,11.80
2017-10-08T23:35:27.299Z,11.80
2017-10-08T23:37:56.405Z,11.60
2017-10-08T23:40:24.686Z,11.70
2017-10-08T23:42:53.354Z,11.70
2017-10-08T23:45:21.734Z,11.60
2017-10-08T23:47:51.515Z,11.50
2017-10-08T23:50:19.814Z,11.50
2017-10-08T23:52:48.447Z,11.40
2017-10-08T23:55:16.723Z,11.40
2017-10-08T23:57:45.000Z,11.30
